createdAt,value
2019-03-30T00:00:27.823Z,70.42
2019-03-30T00:03:00.405Z,70.45
2019-03-30T00:05:32.923Z,70.45
2019-03-30T00:08:05.441Z,70.51
2019-03-30T00:10:37.973Z,70.56
2019-03-30T00:13:10.473Z,70.80
2019-03-30T00:15:42.981Z,71.31
2019-03-30T00:18:15.457Z,71.15
2019-03-30T00:20:48.128Z,71.45
2019-03-30T00:23:20.629Z,71.96
2019-03-30T00:25:53.211Z,72.26
2019-03-30T00:28:25.696Z,72.37
2019-03-30T00:30:58.236Z,72.49
2019-03-30T00:33:30.748Z,72.93
2019-03-30T00:36:03.287Z,73.09
2019-03-30T00:38:35.809Z,73.32
2019-03-30T00:41:08.338Z,73.25
2019-03-30T00:43:40.807Z,73.17
2019-03-30T00:46:13.308Z,72.87
2019-03-30T00:48:45.784Z,73.03
2019-03-30T00:51:18.290Z,73.05
2019-03-30T00:53:50.789Z,73.12
2019-03-30T00:56:23.286Z,73.11
2019-03-30T00:58:55.810Z,72.87
2019-03-30T01:01:28.355Z,72.97
2019-03-30T01:04:01.047Z,73.24
2019-03-30T01:06:33.553Z,73.46
2019-03-30T01:09:06.787Z,73.48
2019-03-30T01:11:39.292Z,73.42
2019-03-30T01:14:11.783Z,73.72
2019-03-30T01:16:44.303Z,73.40
2019-03-30T01:19:16.800Z,72.70
2019-03-30T01:21:49.783Z,72.26
2019-03-30T01:24:22.317Z,72.13
2019-03-30T01:26:54.828Z,71.80
2019-03-30T01:29:27.329Z,71.63
2019-03-30T01:31:59.850Z,71.59
2019-03-30T01:34:32.358Z,72.33
2019-03-30T01:37:04.906Z,72.46
2019-03-30T01:39:37.400Z,72.74
2019-03-30T01:42:09.940Z,72.77
2019-03-30T01:44:42.444Z,73.12
2019-03-30T01:47:14.966Z,73.16
2019-03-30T01:49:47.470Z,72.89
2019-03-30T01:52:19.997Z,72.87
2019-03-30T01:54:52.520Z,73.01
2019-03-30T01:57:25.037Z,72.88
2019-03-30T01:59:57.538Z,73.45
2019-03-30T02:02:30.091Z,73.27
2019-03-30T02:05:02.613Z,72.74
2019-03-30T02:07:35.112Z,72.66
2019-03-30T02:10:08.149Z,72.61
2019-03-30T02:12:40.649Z,72.37
2019-03-30T02:15:13.218Z,72.18
2019-03-30T02:17:45.771Z,72.19
2019-03-30T02:20:30.891Z,72.35
2019-03-30T02:23:02.649Z,72.70
2019-03-30T02:25:35.174Z,72.98
2019-03-30T02:28:07.885Z,73.34
2019-03-30T02:30:40.424Z,73.71
2019-03-30T02:33:12.906Z,74.05
2019-03-30T02:35:45.533Z,74.10
2019-03-30T02:38:18.020Z,73.67
2019-03-30T02:40:50.631Z,73.65
2019-03-30T02:43:23.157Z,73.54
2019-03-30T02:45:55.712Z,73.52
2019-03-30T02:48:28.197Z,73.68
2019-03-30T02:51:00.694Z,73.49
2019-03-30T02:53:33.181Z,73.12
2019-03-30T02:56:05.699Z,72.91
2019-03-30T02:58:38.207Z,72.81
2019-03-30T03:01:10.740Z,72.93
2019-03-30T03:03:43.238Z,72.98
2019-03-30T03:06:15.762Z,73.16
2019-03-30T03:08:48.243Z,73.19
2019-03-30T03:11:20.746Z,73.22
2019-03-30T03:13:53.231Z,73.23
2019-03-30T03:16:27.618Z,73.17
2019-03-30T03:19:00.139Z,73.17
2019-03-30T03:21:32.652Z,73.25
2019-03-30T03:24:05.140Z,73.62
2019-03-30T03:26:37.644Z,73.78
2019-03-30T03:29:10.148Z,74.02
2019-03-30T03:31:42.670Z,74.49
2019-03-30T03:34:15.155Z,74.85
2019-03-30T03:36:47.652Z,75.01
2019-03-30T03:39:20.175Z,74.83
2019-03-30T03:41:52.693Z,74.92
2019-03-30T03:44:25.171Z,74.91
2019-03-30T03:46:57.676Z,74.37
2019-03-30T03:49:30.178Z,74.46
2019-03-30T03:52:02.769Z,74.45
2019-03-30T03:54:35.315Z,74.22
2019-03-30T03:57:09.632Z,74.12
2019-03-30T03:59:42.214Z,74.71
2019-03-30T04:02:16.478Z,75.21
2019-03-30T04:04:49.375Z,75.15
2019-03-30T04:07:23.226Z,74.82
2019-03-30T04:09:57.511Z,74.17
2019-03-30T04:12:31.853Z,73.88
2019-03-30T04:15:07.926Z,73.92
2019-03-30T04:17:40.457Z,74.05
2019-03-30T04:20:16.664Z,74.30
2019-03-30T04:22:49.171Z,75.34
2019-03-30T04:25:21.970Z,75.66
2019-03-30T04:27:54.456Z,75.74
2019-03-30T04:30:26.956Z,75.59
2019-03-30T04:32:59.507Z,75.38
2019-03-30T04:35:32.001Z,75.31
2019-03-30T04:38:04.518Z,75.42
2019-03-30T04:40:37.007Z,75.35
2019-03-30T04:43:09.543Z,75.28
2019-03-30T04:45:42.035Z,74.57
2019-03-30T04:48:14.634Z,73.76
2019-03-30T04:50:47.116Z,75.38
2019-03-30T04:53:19.618Z,76.00
2019-03-30T04:55:52.095Z,76.43
2019-03-30T04:58:24.611Z,76.88
2019-03-30T05:00:57.147Z,77.05
2019-03-30T05:03:29.667Z,76.94
2019-03-30T05:06:02.201Z,77.00
2019-03-30T05:08:34.700Z,77.26
2019-03-30T05:11:07.204Z,77.23
2019-03-30T05:13:39.709Z,77.54
2019-03-30T05:16:12.211Z,77.94
2019-03-30T05:18:44.743Z,77.83
2019-03-30T05:21:17.217Z,78.24
2019-03-30T05:23:49.742Z,78.40
2019-03-30T05:26:22.316Z,78.36
2019-03-30T05:28:54.869Z,78.27
2019-03-30T05:31:27.394Z,78.58
2019-03-30T05:33:59.926Z,78.11
2019-03-30T05:36:32.432Z,78.12
2019-03-30T05:39:05.093Z,77.76
2019-03-30T05:41:37.581Z,77.46
2019-03-30T05:44:10.121Z,77.43
2019-03-30T05:46:42.612Z,77.08
2019-03-30T05:49:15.125Z,76.64
2019-03-30T05:51:47.638Z,76.64
2019-03-30T05:54:20.170Z,76.34
2019-03-30T05:56:52.717Z,76.23
2019-03-30T05:59:25.276Z,74.68
2019-03-30T06:01:57.793Z,74.02
2019-03-30T06:04:30.330Z,72.93
2019-03-30T06:07:02.849Z,71.20
2019-03-30T06:09:35.432Z,69.56
2019-03-30T06:12:07.923Z,69.50
2019-03-30T06:14:40.447Z,68.77
2019-03-30T06:17:12.985Z,68.79
2019-03-30T06:19:45.554Z,68.42
2019-03-30T06:22:18.082Z,67.82
2019-03-30T06:24:50.615Z,68.45
2019-03-30T06:27:23.137Z,67.29
2019-03-30T06:30:15.313Z,66.34
2019-03-30T06:32:48.004Z,64.93
2019-03-30T06:35:21.104Z,63.46
2019-03-30T06:37:53.762Z,62.47
2019-03-30T06:40:26.323Z,61.78
2019-03-30T06:42:58.843Z,60.68
2019-03-30T06:45:32.848Z,60.16
2019-03-30T06:48:05.397Z,58.83
2019-03-30T06:50:37.944Z,57.64
2019-03-30T06:53:10.561Z,56.41
2019-03-30T06:55:43.119Z,56.61
2019-03-30T06:58:15.642Z,55.50
2019-03-30T07:00:48.307Z,54.94
2019-03-30T07:03:20.864Z,53.71
2019-03-30T07:05:54.579Z,53.00
2019-03-30T07:08:28.862Z,52.76
2019-03-30T07:11:02.342Z,52.25
2019-03-30T07:13:38.049Z,50.53
2019-03-30T07:16:10.531Z,50.01
2019-03-30T07:18:43.241Z,49.18
2019-03-30T07:21:15.766Z,48.56
2019-03-30T07:23:48.253Z,48.87
2019-03-30T07:26:20.760Z,49.51
2019-03-30T07:28:53.255Z,49.78
2019-03-30T07:31:25.755Z,49.75
2019-03-30T07:33:58.273Z,49.02
2019-03-30T07:36:30.808Z,49.47
2019-03-30T07:39:04.211Z,49.88
2019-03-30T07:41:36.734Z,49.37
2019-03-30T07:44:09.228Z,49.61
2019-03-30T07:46:41.747Z,48.74
2019-03-30T07:49:14.264Z,48.96
2019-03-30T07:51:46.748Z,48.94
2019-03-30T07:54:19.305Z,48.92
2019-03-30T07:57:04.306Z,48.92
2019-03-30T07:59:27.219Z,48.36
2019-03-30T08:01:59.735Z,48.07
2019-03-30T08:04:32.260Z,47.37
2019-03-30T08:07:04.760Z,47.78
2019-03-30T08:09:37.417Z,47.50
2019-03-30T08:12:09.933Z,47.32
2019-03-30T08:14:45.129Z,46.87
2019-03-30T08:17:16.862Z,46.46
2019-03-30T08:19:50.449Z,46.03
2019-03-30T08:22:23.021Z,45.92
2019-03-30T08:24:55.604Z,45.16
2019-03-30T08:27:28.110Z,45.52
2019-03-30T08:30:00.618Z,45.67
2019-03-30T08:32:33.100Z,45.66
2019-03-30T08:35:05.984Z,45.33
2019-03-30T08:37:38.481Z,45.57
2019-03-30T08:40:11.114Z,45.38
2019-03-30T08:42:43.605Z,45.50
2019-03-30T08:45:16.127Z,45.27
2019-03-30T08:47:48.635Z,44.98
2019-03-30T08:50:21.180Z,44.21
2019-03-30T08:52:53.677Z,43.87
2019-03-30T08:55:26.204Z,43.49
2019-03-30T08:57:58.717Z,42.88
2019-03-30T09:00:41.033Z,41.92
2019-03-30T09:03:13.558Z,42.01
2019-03-30T09:05:46.072Z,42.28
2019-03-30T09:08:18.601Z,41.73
2019-03-30T09:10:51.154Z,41.37
2019-03-30T09:13:23.663Z,41.15
2019-03-30T09:15:56.204Z,41.22
2019-03-30T09:18:28.759Z,40.77
2019-03-30T09:21:01.445Z,40.63
2019-03-30T09:23:33.954Z,40.21
2019-03-30T09:26:06.540Z,39.81
2019-03-30T09:28:39.055Z,40.57
2019-03-30T09:31:11.605Z,40.01
2019-03-30T09:33:44.149Z,40.46
2019-03-30T09:36:16.674Z,40.00
2019-03-30T09:38:49.183Z,39.71
2019-03-30T09:41:21.726Z,38.25
2019-03-30T09:43:54.296Z,37.44
2019-03-30T09:46:26.825Z,37.56
2019-03-30T09:48:59.406Z,37.08
2019-03-30T09:51:31.941Z,36.14
2019-03-30T09:54:04.491Z,34.85
2019-03-30T09:56:37.101Z,35.42
2019-03-30T09:59:09.648Z,35.42
2019-03-30T10:01:42.208Z,34.58
2019-03-30T10:04:14.761Z,34.79
2019-03-30T10:06:47.308Z,34.35
2019-03-30T10:09:19.867Z,34.96
2019-03-30T10:11:52.416Z,34.42
2019-03-30T10:14:24.925Z,34.64
2019-03-30T10:16:57.421Z,35.40
2019-03-30T10:19:30.124Z,34.62
2019-03-30T10:22:02.635Z,33.87
2019-03-30T10:24:38.280Z,33.48
2019-03-30T10:27:09.596Z,33.23
2019-03-30T10:29:42.153Z,33.04
2019-03-30T10:32:14.693Z,33.00
2019-03-30T10:34:47.241Z,33.43
2019-03-30T10:37:19.746Z,33.32
2019-03-30T10:39:52.291Z,32.99
2019-03-30T10:42:24.966Z,33.07
2019-03-30T10:44:57.498Z,33.36
2019-03-30T10:47:30.012Z,32.98
2019-03-30T10:50:02.590Z,32.74
2019-03-30T10:52:35.091Z,32.65
2019-03-30T10:55:07.643Z,31.62
2019-03-30T10:57:40.193Z,31.03
2019-03-30T11:00:18.057Z,30.92
2019-03-30T11:02:50.598Z,30.94
2019-03-30T11:05:23.154Z,30.74
2019-03-30T11:07:55.692Z,30.02
2019-03-30T11:10:28.312Z,28.91
2019-03-30T11:13:00.963Z,27.81
2019-03-30T11:15:34.241Z,27.43
2019-03-30T11:18:07.026Z,28.36
2019-03-30T11:20:39.547Z,29.49
2019-03-30T11:23:12.063Z,29.36
2019-03-30T11:25:44.630Z,28.51
2019-03-30T11:28:17.110Z,28.01
2019-03-30T11:30:49.789Z,27.59
2019-03-30T11:33:22.297Z,27.60
2019-03-30T11:35:54.833Z,28.28
2019-03-30T11:38:27.359Z,28.65
2019-03-30T11:40:59.887Z,28.71
2019-03-30T11:43:32.387Z,28.80
2019-03-30T11:46:05.015Z,28.21
2019-03-30T11:48:37.925Z,28.41
2019-03-30T11:51:10.426Z,28.89
2019-03-30T11:53:42.925Z,28.86
2019-03-30T11:56:15.455Z,29.00
2019-03-30T11:58:47.973Z,28.67
2019-03-30T12:01:21.869Z,28.60
2019-03-30T12:03:54.587Z,29.84
2019-03-30T12:06:27.120Z,28.67
2019-03-30T12:08:59.684Z,28.11
2019-03-30T12:11:32.229Z,28.05
2019-03-30T12:14:04.761Z,28.11
2019-03-30T12:16:37.341Z,27.73
2019-03-30T12:19:09.961Z,27.76
2019-03-30T12:21:42.489Z,27.39
2019-03-30T12:24:15.031Z,29.45
2019-03-30T12:26:47.555Z,28.22
2019-03-30T12:29:20.130Z,27.17
2019-03-30T12:31:52.652Z,27.97
2019-03-30T12:34:25.361Z,28.01
2019-03-30T12:36:57.919Z,28.18
2019-03-30T12:39:30.412Z,27.45
2019-03-30T12:42:02.941Z,27.86
2019-03-30T12:44:35.529Z,27.42
2019-03-30T12:47:10.355Z,27.49
2019-03-30T12:49:45.094Z,27.61
2019-03-30T12:52:16.880Z,26.68
2019-03-30T12:54:49.437Z,26.38
2019-03-30T12:57:21.998Z,26.41
2019-03-30T12:59:54.489Z,26.12
2019-03-30T13:02:27.077Z,26.36
2019-03-30T13:04:59.688Z,27.43
2019-03-30T13:07:32.250Z,27.85
2019-03-30T13:10:05.777Z,27.09
2019-03-30T13:12:38.352Z,26.79
2019-03-30T13:15:10.992Z,25.80
2019-03-30T13:17:43.552Z,25.90
2019-03-30T13:20:16.232Z,25.44
2019-03-30T13:22:48.789Z,25.61
2019-03-30T13:25:21.386Z,26.06
2019-03-30T13:27:53.917Z,26.50
2019-03-30T13:30:26.487Z,26.43
2019-03-30T13:32:58.999Z,27.27
2019-03-30T13:35:31.575Z,27.33
2019-03-30T13:38:04.090Z,27.80
2019-03-30T13:40:36.638Z,26.56
2019-03-30T13:43:09.145Z,26.48
2019-03-30T13:45:41.717Z,26.63
2019-03-30T13:48:14.255Z,26.30
2019-03-30T13:50:46.803Z,26.38
2019-03-30T13:53:19.408Z,25.75
2019-03-30T13:55:51.932Z,25.91
2019-03-30T13:58:24.460Z,26.48
2019-03-30T14:00:56.979Z,27.09
2019-03-30T14:03:29.508Z,26.66
2019-03-30T14:06:02.036Z,26.42
2019-03-30T14:08:34.568Z,25.64
2019-03-30T14:11:07.117Z,26.27
2019-03-30T14:13:39.647Z,25.74
2019-03-30T14:16:12.233Z,26.32
2019-03-30T14:18:44.805Z,26.93
2019-03-30T14:21:17.360Z,27.09
2019-03-30T14:23:49.927Z,26.75
2019-03-30T14:26:31.192Z,26.41
2019-03-30T14:28:56.857Z,26.41
2019-03-30T14:31:29.394Z,26.04
2019-03-30T14:34:01.920Z,26.26
2019-03-30T14:36:34.499Z,26.14
2019-03-30T14:39:07.173Z,26.04
2019-03-30T14:41:39.713Z,25.97
2019-03-30T14:44:12.288Z,26.31
2019-03-30T14:46:44.871Z,26.31
2019-03-30T14:49:17.378Z,26.61
2019-03-30T14:51:49.936Z,26.73
2019-03-30T14:54:22.438Z,26.62
2019-03-30T14:56:55.002Z,26.81
2019-03-30T14:59:27.540Z,26.07
2019-03-30T15:02:00.084Z,25.87
2019-03-30T15:04:32.626Z,26.19
2019-03-30T15:07:05.169Z,26.74
2019-03-30T15:09:37.722Z,26.34
2019-03-30T15:12:10.254Z,26.78
2019-03-30T15:14:42.794Z,27.00
2019-03-30T15:17:15.344Z,26.87
2019-03-30T15:19:47.871Z,27.17
2019-03-30T15:22:20.416Z,27.08
2019-03-30T15:24:52.957Z,27.41
2019-03-30T15:27:25.477Z,27.49
2019-03-30T15:29:58.179Z,26.72
2019-03-30T15:32:30.709Z,26.87
2019-03-30T15:35:03.513Z,26.65
2019-03-30T15:37:36.046Z,27.38
2019-03-30T15:40:08.909Z,27.26
2019-03-30T15:42:41.427Z,27.61
2019-03-30T15:45:13.978Z,27.59
2019-03-30T15:47:46.515Z,27.51
2019-03-30T15:50:19.201Z,27.77
2019-03-30T15:52:51.700Z,27.43
2019-03-30T15:55:24.296Z,27.01
2019-03-30T15:57:57.083Z,27.19
2019-03-30T16:00:29.670Z,26.47
2019-03-30T16:03:02.240Z,26.66
2019-03-30T16:05:34.771Z,26.78
2019-03-30T16:08:07.357Z,26.38
2019-03-30T16:10:39.910Z,26.65
2019-03-30T16:13:14.580Z,26.41
2019-03-30T16:15:46.963Z,26.27
2019-03-30T16:18:19.508Z,26.54
2019-03-30T16:20:52.052Z,26.95
2019-03-30T16:23:24.547Z,27.28
2019-03-30T16:25:57.118Z,27.09
2019-03-30T16:28:29.646Z,27.14
2019-03-30T16:31:02.225Z,27.29
2019-03-30T16:33:34.731Z,27.74
2019-03-30T16:36:07.282Z,27.74
2019-03-30T16:38:39.810Z,27.98
2019-03-30T16:41:12.348Z,28.24
2019-03-30T16:43:44.828Z,28.47
2019-03-30T16:46:17.446Z,28.34
2019-03-30T16:48:50.084Z,28.62
2019-03-30T16:51:22.605Z,28.86
2019-03-30T16:53:55.163Z,29.20
2019-03-30T16:56:27.714Z,29.52
2019-03-30T16:59:00.250Z,29.54
2019-03-30T17:01:32.778Z,30.12
2019-03-30T17:04:05.339Z,31.02
2019-03-30T17:06:37.877Z,31.37
2019-03-30T17:09:10.427Z,31.47
2019-03-30T17:11:42.996Z,31.87
2019-03-30T17:14:15.562Z,32.16
2019-03-30T17:16:48.075Z,32.03
2019-03-30T17:19:20.639Z,32.13
2019-03-30T17:21:53.414Z,32.62
2019-03-30T17:24:25.969Z,32.63
2019-03-30T17:26:58.539Z,33.06
2019-03-30T17:29:31.089Z,33.81
2019-03-30T17:32:03.659Z,33.50
2019-03-30T17:34:36.174Z,34.01
2019-03-30T17:37:08.741Z,34.73
2019-03-30T17:39:41.286Z,35.79
2019-03-30T17:42:13.868Z,36.29
2019-03-30T17:44:46.400Z,36.65
2019-03-30T17:47:19.022Z,37.32
2019-03-30T17:49:51.539Z,37.54
2019-03-30T17:52:24.094Z,37.71
2019-03-30T17:54:56.663Z,38.54
2019-03-30T17:57:29.221Z,39.00
2019-03-30T18:00:01.755Z,40.05
2019-03-30T18:02:34.338Z,40.66
2019-03-30T18:05:06.942Z,41.46
2019-03-30T18:07:39.575Z,41.52
2019-03-30T18:10:12.112Z,42.10
2019-03-30T18:12:44.713Z,42.51
2019-03-30T18:15:17.303Z,42.87
2019-03-30T18:17:49.835Z,43.62
2019-03-30T18:20:22.417Z,44.16
2019-03-30T18:22:54.966Z,44.53
2019-03-30T18:25:27.690Z,44.88
2019-03-30T18:28:00.259Z,44.62
2019-03-30T18:30:39.371Z,45.10
2019-03-30T18:33:11.898Z,45.46
2019-03-30T18:35:44.475Z,45.87
2019-03-30T18:38:17.041Z,46.49
2019-03-30T18:40:49.665Z,46.45
2019-03-30T18:43:22.205Z,46.73
2019-03-30T18:45:54.822Z,47.04
2019-03-30T18:48:27.452Z,47.53
2019-03-30T18:51:00.428Z,47.59
2019-03-30T18:53:33.011Z,47.95
2019-03-30T18:56:05.563Z,48.33
2019-03-30T18:58:41.878Z,48.52
2019-03-30T19:01:12.618Z,48.60
2019-03-30T19:03:45.160Z,48.76
2019-03-30T19:06:17.740Z,48.68
2019-03-30T19:08:50.409Z,49.23
2019-03-30T19:11:23.043Z,49.82
2019-03-30T19:13:55.602Z,49.88
2019-03-30T19:16:28.169Z,50.17
2019-03-30T19:19:00.723Z,50.52
2019-03-30T19:21:33.480Z,50.71
2019-03-30T19:24:06.082Z,50.96
2019-03-30T19:26:38.654Z,51.03
2019-03-30T19:29:11.244Z,51.19
2019-03-30T19:31:43.829Z,51.37
2019-03-30T19:34:16.382Z,51.62
2019-03-30T19:36:49.023Z,51.63
2019-03-30T19:39:21.568Z,51.89
2019-03-30T19:41:54.178Z,52.41
2019-03-30T19:44:26.747Z,52.62
2019-03-30T19:46:59.329Z,53.05
2019-03-30T19:49:31.928Z,52.79
2019-03-30T19:52:05.767Z,52.43
2019-03-30T19:54:38.489Z,52.90
2019-03-30T19:57:11.116Z,53.09
2019-03-30T19:59:43.679Z,52.98
2019-03-30T20:02:16.323Z,53.32
2019-03-30T20:04:48.946Z,53.93
2019-03-30T20:07:21.526Z,54.12
2019-03-30T20:09:54.135Z,54.51
2019-03-30T20:12:26.881Z,55.26
2019-03-30T20:14:59.522Z,55.26
2019-03-30T20:17:32.197Z,55.47
2019-03-30T20:20:05.897Z,55.62
2019-03-30T20:22:38.507Z,55.62
2019-03-30T20:25:11.275Z,55.88
2019-03-30T20:27:43.847Z,57.01
2019-03-30T20:30:16.785Z,57.01
2019-03-30T20:32:49.342Z,57.93
2019-03-30T20:35:21.994Z,58.03
2019-03-30T20:37:54.631Z,58.23
2019-03-30T20:40:27.167Z,58.91
2019-03-30T20:42:59.798Z,59.26
2019-03-30T20:45:32.729Z,59.12
2019-03-30T20:48:05.745Z,59.17
2019-03-30T20:50:39.024Z,59.12
2019-03-30T20:53:11.626Z,58.99
2019-03-30T20:55:44.257Z,59.04
2019-03-30T20:58:16.824Z,58.77
2019-03-30T21:00:49.443Z,58.96
2019-03-30T21:03:23.538Z,59.05
2019-03-30T21:05:56.080Z,59.44
2019-03-30T21:08:28.653Z,59.54
2019-03-30T21:11:03.370Z,59.43
2019-03-30T21:13:35.908Z,59.62
2019-03-30T21:16:08.517Z,59.88
2019-03-30T21:18:42.561Z,59.96
2019-03-30T21:21:15.154Z,60.12
2019-03-30T21:23:47.722Z,60.17
2019-03-30T21:26:20.279Z,60.30
2019-03-30T21:28:52.855Z,59.92
2019-03-30T21:31:25.375Z,59.62
2019-03-30T21:33:57.965Z,59.98
2019-03-30T21:36:30.520Z,60.33
2019-03-30T21:39:04.940Z,60.63
2019-03-30T21:41:37.525Z,60.65
2019-03-30T21:44:21.422Z,60.63
2019-03-30T21:46:44.571Z,60.87
2019-03-30T21:49:17.171Z,60.67
2019-03-30T21:51:49.775Z,60.60
2019-03-30T21:54:22.326Z,60.71
2019-03-30T21:56:54.869Z,60.81
2019-03-30T21:59:27.387Z,60.99
2019-03-30T22:01:59.985Z,61.16
2019-03-30T22:04:32.532Z,61.39
2019-03-30T22:07:05.184Z,61.78
2019-03-30T22:09:37.748Z,62.06
2019-03-30T22:12:10.349Z,62.24
2019-03-30T22:14:42.894Z,62.34
2019-03-30T22:17:15.454Z,62.48
2019-03-30T22:19:48.088Z,62.43
2019-03-30T22:22:20.620Z,62.34
2019-03-30T22:24:53.135Z,62.38
2019-03-30T22:27:25.681Z,62.52
2019-03-30T22:29:58.237Z,62.65
2019-03-30T22:32:30.801Z,62.75
2019-03-30T22:35:03.526Z,63.03
2019-03-30T22:37:36.062Z,62.79
2019-03-30T22:40:09.744Z,62.68
2019-03-30T22:42:42.253Z,62.97
2019-03-30T22:45:14.786Z,62.94
2019-03-30T22:47:47.335Z,62.86
2019-03-30T22:50:19.886Z,63.18
2019-03-30T22:52:52.487Z,63.43
2019-03-30T22:55:25.091Z,63.50
2019-03-30T22:57:57.635Z,63.53
2019-03-30T23:00:48.147Z,63.80
2019-03-30T23:03:20.716Z,63.95
2019-03-30T23:05:53.264Z,63.76
2019-03-30T23:08:25.823Z,63.84
2019-03-30T23:10:58.365Z,63.93
2019-03-30T23:13:30.935Z,63.94
2019-03-30T23:16:03.472Z,64.04
2019-03-30T23:18:36.052Z,64.42
2019-03-30T23:21:08.556Z,64.47
2019-03-30T23:23:41.116Z,64.37
2019-03-30T23:26:13.629Z,64.65
2019-03-30T23:28:46.209Z,64.96
2019-03-30T23:31:18.718Z,64.94
2019-03-30T23:33:51.332Z,65.06
2019-03-30T23:36:23.855Z,65.33
2019-03-30T23:38:56.416Z,65.34
2019-03-30T23:41:28.937Z,65.55
2019-03-30T23:44:01.466Z,65.64
2019-03-30T23:46:34.068Z,65.62
2019-03-30T23:49:06.621Z,65.56
2019-03-30T23:51:39.393Z,65.57
2019-03-30T23:54:14.771Z,65.75
2019-03-30T23:56:47.295Z,66.07
2019-03-30T23:59:19.853Z,66.23
